Time;durP1;ratioP1;P1;durP2;ratioP2;P2;SDS_P1;SDS_P2;PMS_P1;PMS_P2;Temp;Humidity;BMP_temperature;BMP_pressure;BME280_temperature;BME280_humidity;BME280_pressure;Samples;Min_cycle;Max_cycle;Signal;HPM_P1;HPM_P2
2022/04/28 00:00:14;;;;;;;9.18;7.57;;;5.80;99.90;;;;;;5093824;28;20043;-78
2022/04/28 00:02:41;;;;;;;9.27;8.32;;;5.80;99.90;;;;;;5088767;28;20044;-77
2022/04/28 00:05:08;;;;;;;10.50;8.80;;;5.80;99.90;;;;;;5099208;28;20483;-79
2022/04/28 00:07:35;;;;;;;9.63;8.82;;;5.70;99.90;;;;;;5095263;28;20048;-78
2022/04/28 00:10:03;;;;;;;10.25;8.40;;;5.60;99.90;;;;;;5089796;28;20488;-78
2022/04/28 00:12:30;;;;;;;8.43;7.60;;;5.60;99.90;;;;;;5110326;28;20031;-78
2022/04/28 00:14:57;;;;;;;9.35;7.97;;;5.50;99.90;;;;;;5112373;28;20480;-79
2022/04/28 00:17:23;;;;;;;9.07;8.38;;;5.50;99.90;;;;;;5105335;28;20039;-78
2022/04/28 00:19:49;;;;;;;8.95;8.05;;;5.60;99.90;;;;;;5094906;28;20044;-78
2022/04/28 00:22:16;;;;;;;8.73;7.93;;;5.50;99.90;;;;;;5111849;28;20028;-78
2022/04/28 00:24:44;;;;;;;9.70;8.90;;;5.40;99.90;;;;;;5110749;28;20024;-79
2022/04/28 00:27:10;;;;;;;9.20;8.48;;;5.40;99.90;;;;;;5094853;28;20051;-79
2022/04/28 00:29:36;;;;;;;9.32;8.43;;;5.40;99.90;;;;;;5095905;28;20488;-78
2022/04/28 00:32:03;;;;;;;8.55;7.85;;;5.40;99.90;;;;;;5111334;28;20015;-79
2022/04/28 00:34:29;;;;;;;9.43;8.32;;;5.30;99.90;;;;;;5084513;28;20040;-78
2022/04/28 00:36:55;;;;;;;8.73;8.02;;;5.30;99.90;;;;;;5094420;28;20372;-79
2022/04/28 00:39:21;;;;;;;9.15;8.40;;;5.30;99.90;;;;;;5079253;28;20036;-79
2022/04/28 00:41:47;;;;;;;9.00;8.10;;;5.40;99.90;;;;;;5111414;28;20038;-78
2022/04/28 00:44:13;;;;;;;8.60;7.88;;;5.30;99.90;;;;;;5064472;28;20036;-78
2022/04/28 00:46:42;;;;;;;8.68;7.75;;;5.10;99.90;;;;;;5116096;28;20045;-78
2022/04/28 00:51:54;;;;;;;9.27;8.43;;;5.00;99.90;;;;;;5111620;28;20040;-79
2022/04/28 00:54:22;;;;;;;8.15;7.45;;;4.80;99.90;;;;;;5094470;28;20027;-80
2022/04/28 00:56:49;;;;;;;10.80;9.10;;;4.70;99.90;;;;;;5093390;28;20043;-78
2022/04/28 00:59:16;;;;;;;9.65;8.93;;;4.70;99.90;;;;;;5109587;28;20040;-78
2022/04/28 01:01:42;;;;;;;9.32;8.43;;;4.70;99.90;;;;;;5109094;28;20028;-78
2022/04/28 01:04:08;;;;;;;9.40;8.60;;;4.70;99.90;;;;;;5110129;28;20066;-79
2022/04/28 01:06:35;;;;;;;9.60;8.70;;;4.40;99.90;;;;;;5112418;28;20035;-79
2022/04/28 01:09:01;;;;;;;9.98;9.00;;;4.30;99.90;;;;;;5094952;28;20032;-79
2022/04/28 01:11:29;;;;;;;11.07;10.15;;;4.30;99.90;;;;;;5079594;28;20040;-78
2022/04/28 01:14:02;;;;;;;9.82;8.93;;;4.30;99.90;;;;;;5076115;28;20497;-79
2022/04/28 01:16:36;;;;;;;9.73;8.93;;;4.40;99.90;;;;;;5084156;28;20055;-78
2022/04/28 01:19:02;;;;;;;10.25;9.18;;;4.40;99.90;;;;;;5087426;28;20493;-78
2022/04/28 01:21:30;;;;;;;9.10;8.38;;;4.30;99.90;;;;;;5091558;28;20035;-78
2022/04/28 01:24:01;;;;;;;;;;;4.20;99.90;;;;;;5081341;28;20044;-78
2022/04/28 01:26:28;;;;;;;10.00;9.05;;;4.10;99.90;;;;;;5091696;28;19916;-78
2022/04/28 01:28:54;;;;;;;8.50;7.70;;;4.00;99.90;;;;;;5112095;28;20032;-78
2022/04/28 01:31:20;;;;;;;10.60;9.50;;;4.00;99.90;;;;;;5089565;28;20472;-78
2022/04/28 01:33:53;;;;;;;10.25;9.43;;;4.00;99.90;;;;;;5092192;28;20039;-78
2022/04/28 01:36:21;;;;;;;10.15;9.35;;;4.10;99.90;;;;;;5071120;28;20036;-78
2022/04/28 01:38:48;;;;;;;11.00;10.00;;;4.20;99.90;;;;;;5093161;28;20480;-78
2022/04/28 01:41:15;;;;;;;17.27;10.52;;;4.20;99.90;;;;;;5089214;28;20044;-78
2022/04/28 01:43:42;;;;;;;12.30;11.05;;;4.30;99.90;;;;;;5093209;28;20046;-78
2022/04/28 01:46:12;;;;;;;10.50;9.50;;;4.30;99.90;;;;;;5091543;28;20448;-78
2022/04/28 01:48:48;;;;;;;12.77;11.05;;;4.40;99.90;;;;;;5093415;28;20055;-78
2022/04/28 01:57:17;;;;;;;10.57;9.60;;;4.40;99.90;;;;;;5105247;28;20125;-78
2022/04/28 02:00:04;;;;;;;11.32;10.30;;;4.50;99.90;;;;;;5081455;28;20032;-79
2022/04/28 02:02:46;;;;;;;14.55;9.73;;;4.50;99.90;;;;;;5074494;28;20047;-78
2022/04/28 02:05:13;;;;;;;11.63;10.52;;;4.50;99.90;;;;;;5090843;28;20046;-78
2022/04/28 02:07:40;;;;;;;13.13;11.73;;;4.60;99.90;;;;;;5093092;28;20046;-78
2022/04/28 02:10:08;;;;;;;13.05;11.75;;;4.60;99.90;;;;;;5075393;28;20051;-78
2022/04/28 02:12:37;;;;;;;13.63;11.40;;;4.70;99.90;;;;;;5090808;28;20036;-78
2022/04/28 02:15:36;;;;;;;13.05;11.45;;;4.70;99.90;;;;;;5106365;28;20053;-79
2022/04/28 02:18:40;;;;;;;10.57;9.68;;;4.70;99.90;;;;;;5074186;28;20412;-78
2022/04/28 02:21:07;;;;;;;11.38;10.18;;;4.60;99.90;;;;;;5091927;28;20036;-79
2022/04/28 02:23:33;;;;;;;11.57;10.43;;;4.50;99.90;;;;;;5111303;28;20474;-79
2022/04/28 02:25:59;;;;;;;10.77;9.77;;;4.50;99.90;;;;;;5090879;28;20036;-79
2022/04/28 02:28:26;;;;;;;10.25;9.38;;;4.40;99.90;;;;;;5076270;28;20047;-79
2022/04/28 02:30:52;;;;;;;11.57;10.52;;;4.30;99.90;;;;;;5094605;28;20043;-79
2022/04/28 02:33:19;;;;;;;12.10;11.05;;;4.20;99.90;;;;;;5092085;28;20465;-79
2022/04/28 02:36:12;;;;;;;17.92;9.93;;;4.30;99.90;;;;;;5104263;28;20507;-79
2022/04/28 02:38:39;;;;;;;10.45;9.55;;;4.30;99.90;;;;;;5092353;28;20036;-79
2022/04/28 02:41:11;;;;;;;11.88;10.77;;;4.40;99.90;;;;;;5103847;28;20048;-79
2022/04/28 02:43:37;;;;;;;11.00;9.95;;;4.30;99.90;;;;;;5092980;28;20046;-79
2022/04/28 02:46:11;;;;;;;11.40;10.40;;;4.40;99.90;;;;;;5091910;28;20115;-77
2022/04/28 02:48:50;;;;;;;11.45;10.50;;;4.50;99.90;;;;;;5094577;28;20044;-78
2022/04/28 02:51:17;;;;;;;11.55;10.60;;;4.50;99.90;;;;;;5095689;28;20051;-79
2022/04/28 02:53:45;;;;;;;10.30;9.35;;;4.50;99.90;;;;;;5088851;28;20040;-79
2022/04/28 02:56:11;;;;;;;13.45;10.63;;;4.40;99.90;;;;;;5080681;28;20035;-78
2022/04/28 02:58:37;;;;;;;15.77;10.05;;;4.40;99.90;;;;;;5091404;28;20126;-78
2022/04/28 03:01:06;;;;;;;12.15;10.98;;;4.40;99.90;;;;;;5091824;28;20149;-79
2022/04/28 03:03:35;;;;;;;11.90;10.90;;;4.40;99.90;;;;;;5077177;28;20485;-79
2022/04/28 03:11:33;;;;;;;10.88;9.88;;;4.30;99.90;;;;;;5108843;28;20024;-79
2022/04/28 03:13:59;;;;;;;11.43;10.25;;;4.30;99.90;;;;;;5105706;28;20039;-78
2022/04/28 03:16:28;;;;;;;13.27;11.35;;;4.40;99.90;;;;;;5094027;28;20522;-79
2022/04/28 03:19:03;;;;;;;12.75;11.50;;;4.40;99.90;;;;;;5089986;28;20042;-79
2022/04/28 03:21:32;;;;;;;12.75;11.23;;;4.30;99.90;;;;;;5088737;28;20499;-80
2022/04/28 03:23:59;;;;;;;12.13;10.95;;;4.30;99.90;;;;;;5093949;28;20036;-79
2022/04/28 03:26:25;;;;;;;18.75;13.07;;;4.30;99.90;;;;;;5091477;28;20035;-79
2022/04/28 03:28:52;;;;;;;11.57;10.50;;;4.30;99.90;;;;;;5093179;28;20416;-78
2022/04/28 03:31:19;;;;;;;10.95;10.05;;;4.30;99.90;;;;;;5064769;28;20051;-79
2022/04/28 03:34:15;;;;;;;11.02;10.02;;;4.20;99.90;;;;;;5072227;28;20501;-79
2022/04/28 03:36:50;;;;;;;11.48;10.27;;;4.20;99.90;;;;;;5082070;28;20043;-78
2022/04/28 03:39:17;;;;;;;12.32;11.23;;;4.10;99.90;;;;;;5094276;28;20047;-79
2022/04/28 03:41:44;;;;;;;12.70;11.05;;;4.10;99.90;;;;;;5096007;28;20047;-78
2022/04/28 03:44:10;;;;;;;13.50;12.30;;;4.10;99.90;;;;;;5100081;28;20035;-78
2022/04/28 03:46:38;;;;;;;12.23;11.23;;;4.20;99.90;;;;;;5090125;28;20396;-79
2022/04/28 03:49:05;;;;;;;16.02;11.65;;;4.10;99.90;;;;;;5111863;28;20488;-80
2022/04/28 03:51:32;;;;;;;11.63;10.63;;;4.00;99.90;;;;;;5077687;28;20051;-78
2022/04/28 03:54:00;;;;;;;12.20;11.00;;;3.80;99.90;;;;;;5098036;28;20046;-78
2022/04/28 03:56:31;;;;;;;12.52;11.43;;;3.60;99.90;;;;;;5080545;28;20039;-78
2022/04/28 03:59:01;;;;;;;7.50;6.93;;;3.50;99.90;;;;;;5095686;28;20476;-78
2022/04/28 04:01:28;;;;;;;11.32;10.45;;;3.50;99.90;;;;;;5093897;28;20106;-77
2022/04/28 04:04:08;;;;;;;13.15;11.75;;;3.50;99.90;;;;;;5107341;28;20036;-78
2022/04/28 04:06:39;;;;;;;11.60;10.65;;;3.50;99.90;;;;;;5090605;28;20040;-79
2022/04/28 04:09:36;;;;;;;13.48;12.20;;;3.70;99.90;;;;;;5087845;28;20366;-80
2022/04/28 04:12:12;;;;;;;12.73;11.48;;;3.80;99.90;;;;;;5097420;28;20040;-77
2022/04/28 04:14:56;;;;;;;13.70;12.40;;;3.90;99.90;;;;;;5098008;28;20047;-80
2022/04/28 04:17:25;;;;;;;14.30;12.95;;;3.90;99.90;;;;;;5090283;28;20063;-77
2022/04/28 04:19:52;;;;;;;15.27;13.90;;;3.90;99.90;;;;;;5072871;28;20044;-80
2022/04/28 04:22:18;;;;;;;13.75;12.48;;;3.90;99.90;;;;;;5087599;28;20118;-80
2022/04/28 04:24:45;;;;;;;13.15;12.02;;;3.90;99.90;;;;;;5072139;28;20044;-80
2022/04/28 04:27:15;;;;;;;13.50;12.18;;;4.00;99.90;;;;;;5072085;28;20063;-77
2022/04/28 04:32:17;;;;;;;12.55;11.35;;;4.00;99.90;;;;;;5085553;28;20051;-80
2022/04/28 04:32:47;;;;;;;12.65;11.45;;;4.00;99.90;;;;;;5104620;28;20374;-78
2022/04/28 04:35:29;;;;;;;11.77;10.88;;;4.10;99.90;;;;;;5087375;28;20040;-77
2022/04/28 04:37:59;;;;;;;12.90;11.43;;;4.00;99.90;;;;;;5090821;28;20055;-77
2022/04/28 04:40:27;;;;;;;13.13;12.05;;;4.00;99.90;;;;;;5076841;28;20036;-76
2022/04/28 04:42:54;;;;;;;13.80;12.55;;;4.10;99.90;;;;;;5104174;28;20047;-75
2022/04/28 04:45:23;;;;;;;13.50;12.30;;;4.20;99.90;;;;;;5088934;28;20044;-74
2022/04/28 04:48:25;;;;;;;12.77;11.75;;;4.30;99.90;;;;;;5064478;28;20036;-74
2022/04/28 04:50:54;;;;;;;14.20;12.90;;;4.30;99.90;;;;;;5091001;28;20047;-74
2022/04/28 04:53:33;;;;;;;11.05;10.05;;;4.50;99.90;;;;;;5091258;28;20043;-74
2022/04/28 04:56:00;;;;;;;9.20;8.50;;;5.20;99.90;;;;;;5084602;28;20056;-75
2022/04/28 04:58:26;;;;;;;7.88;7.25;;;6.10;99.90;;;;;;5085481;28;20769;-74
2022/04/28 05:00:56;;;;;;;10.27;7.13;;;6.90;99.90;;;;;;5088501;28;20037;-75
2022/04/28 05:03:23;;;;;;;11.38;6.70;;;7.60;99.90;;;;;;5093565;28;20512;-75
2022/04/28 05:05:53;;;;;;;7.47;6.55;;;7.90;99.90;;;;;;5105056;28;20043;-75
2022/04/28 05:08:23;;;;;;;9.60;6.18;;;8.20;99.90;;;;;;5093134;28;20039;-75
2022/04/28 05:10:57;;;;;;;9.77;5.55;;;8.90;99.90;;;;;;5092505;28;20492;-75
2022/04/28 05:13:24;;;;;;;6.93;6.32;;;9.60;99.90;;;;;;5081805;28;20044;-75
2022/04/28 05:15:53;;;;;;;5.47;4.97;;;9.80;99.10;;;;;;5091326;28;20055;-75
2022/04/28 05:18:32;;;;;;;10.35;4.97;;;10.10;97.90;;;;;;5092363;28;20495;-75
2022/04/28 05:21:21;;;;;;;4.20;3.80;;;10.30;97.50;;;;;;5071409;28;20043;-75
2022/04/28 05:24:20;;;;;;;5.68;4.88;;;10.50;97.40;;;;;;5049253;28;20091;-76
2022/04/28 05:27:04;;;;;;;7.93;4.95;;;11.40;95.70;;;;;;5109925;27;20051;-76
2022/04/28 05:29:51;;;;;;;5.30;4.40;;;12.70;91.80;;;;;;5117760;28;20055;-76
2022/04/28 05:32:36;;;;;;;5.45;4.90;;;12.60;90.60;;;;;;5109373;28;20408;-76
2022/04/28 05:35:11;;;;;;;5.18;4.68;;;12.60;91.60;;;;;;5088635;28;20388;-76
2022/04/28 05:37:39;;;;;;;5.70;5.15;;;12.40;92.10;;;;;;5111288;28;20034;-76
2022/04/28 05:40:06;;;;;;;5.88;5.15;;;12.20;93.10;;;;;;5092658;28;20105;-77
2022/04/28 05:45:46;;;;;;;7.93;5.80;;;12.30;93.60;;;;;;5068873;28;20212;-76
2022/04/28 05:48:18;;;;;;;7.57;5.93;;;12.20;94.00;;;;;;5074286;28;20031;-75
2022/04/28 05:50:52;;;;;;;6.18;5.57;;;12.40;93.90;;;;;;5092619;28;20047;-76
2022/04/28 05:53:19;;;;;;;5.50;5.00;;;12.70;93.30;;;;;;5110931;28;20039;-76
2022/04/28 05:55:50;;;;;;;6.10;5.53;;;12.50;93.90;;;;;;5084621;28;20477;-75
2022/04/28 05:58:18;;;;;;;5.60;5.10;;;12.50;93.80;;;;;;5092216;28;20044;-75
2022/04/28 06:00:51;;;;;;;6.80;4.80;;;12.80;92.60;;;;;;5091885;28;20035;-75
2022/04/28 06:03:18;;;;;;;6.10;5.28;;;12.40;93.70;;;;;;5084617;28;20036;-75
2022/04/28 06:05:58;;;;;;;6.57;4.57;;;12.50;93.80;;;;;;5087210;28;20040;-75
2022/04/28 06:08:24;;;;;;;6.72;5.75;;;12.50;93.50;;;;;;5074099;28;20071;-76
2022/04/28 06:10:51;;;;;;;6.32;5.65;;;12.10;94.70;;;;;;5090630;28;20373;-75
2022/04/28 06:13:17;;;;;;;5.80;5.20;;;11.80;95.50;;;;;;5078307;28;20478;-75
2022/04/28 06:16:16;;;;;;;8.95;5.95;;;12.20;94.70;;;;;;5065535;28;20044;-76
2022/04/28 06:18:54;;;;;;;5.53;4.80;;;13.00;93.70;;;;;;5081925;28;20047;-75
2022/04/28 06:21:43;;;;;;;6.35;5.75;;;12.70;93.20;;;;;;5090383;28;20036;-75
2022/04/28 06:24:09;;;;;;;5.70;5.20;;;12.60;93.40;;;;;;5087106;28;20040;-76
2022/04/28 06:26:36;;;;;;;6.82;5.50;;;12.70;93.90;;;;;;5087186;28;20040;-76
2022/04/28 06:29:03;;;;;;;7.10;5.75;;;13.00;93.50;;;;;;5085017;28;20059;-75
2022/04/28 06:31:29;;;;;;;6.97;5.63;;;13.10;92.80;;;;;;5088250;28;20481;-76
2022/04/28 06:34:15;;;;;;;6.57;5.47;;;14.00;91.10;;;;;;5088525;28;20044;-77
2022/04/28 06:36:45;;;;;;;6.80;5.13;;;13.20;91.60;;;;;;5106077;28;20043;-76
2022/04/28 06:39:13;;;;;;;5.80;5.15;;;13.20;92.30;;;;;;5084446;28;20366;-77
2022/04/28 06:41:40;;;;;;;6.70;5.65;;;13.20;92.30;;;;;;5089168;28;20040;-76
2022/04/28 06:44:18;;;;;;;6.43;5.35;;;14.30;90.20;;;;;;5075167;28;20044;-76
2022/04/28 06:47:05;;;;;;;5.68;5.13;;;14.50;88.60;;;;;;5081930;28;20053;-75
2022/04/28 06:50:04;;;;;;;7.57;5.25;;;15.20;84.60;;;;;;5095005;28;20047;-76
2022/04/28 06:52:56;;;;;;;6.22;5.00;;;14.90;86.00;;;;;;5085643;28;20508;-76
2022/04/28 06:55:29;;;;;;;6.57;5.68;;;14.70;87.10;;;;;;5106644;28;20051;-76
2022/04/28 06:57:56;;;;;;;12.40;6.00;;;15.20;83.00;;;;;;5092813;28;20400;-76
2022/04/28 07:00:27;;;;;;;7.95;5.25;;;14.90;85.10;;;;;;5090978;28;20044;-76
2022/04/28 07:02:55;;;;;;;5.60;5.10;;;15.40;83.90;;;;;;5093647;28;20044;-75
2022/04/28 07:05:23;;;;;;;5.80;5.18;;;15.20;84.00;;;;;;5093186;28;20035;-75
2022/04/28 07:07:50;;;;;;;6.32;5.75;;;15.10;85.90;;;;;;5112737;28;20039;-76
2022/04/28 07:10:22;;;;;;;5.50;5.05;;;16.00;81.70;;;;;;5095957;28;20400;-77
2022/04/28 07:12:49;;;;;;;5.82;5.22;;;15.80;81.70;;;;;;5103661;28;20043;-76
2022/04/28 07:15:42;;;;;;;8.48;5.70;;;17.50;76.00;;;;;;5107751;28;20055;-76
2022/04/28 07:18:23;;;;;;;7.72;5.78;;;17.90;72.90;;;;;;5115125;28;20044;-76
2022/04/28 07:20:52;;;;;;;8.38;5.78;;;17.50;73.30;;;;;;5111685;28;20055;-79
2022/04/28 07:23:19;;;;;;;6.35;5.28;;;18.10;71.30;;;;;;5090112;28;20043;-76
2022/04/28 07:25:46;;;;;;;5.40;4.90;;;18.70;67.90;;;;;;5076181;28;20036;-76
2022/04/28 07:28:14;;;;;;;5.78;5.07;;;18.60;68.60;;;;;;5085061;28;20040;-77
2022/04/28 07:31:12;;;;;;;;;;;19.20;66.00;;;;;;5042248;28;20050;-77
2022/04/28 07:33:59;;;;;;;6.43;3.88;;;17.80;68.50;;;;;;5086873;28;19911;-77
2022/04/28 07:36:40;;;;;;;5.07;4.28;;;18.70;71.30;;;;;;5114489;28;20048;-76
2022/04/28 07:39:24;;;;;;;4.43;4.03;;;20.30;62.90;;;;;;5111579;28;20144;-73
2022/04/28 07:42:09;;;;;;;6.45;5.25;;;19.70;62.60;;;;;;5113946;28;20047;-81
2022/04/28 07:44:39;;;;;;;4.40;4.00;;;20.00;62.00;;;;;;5077384;28;20126;-81
2022/04/28 07:47:06;;;;;;;4.22;3.88;;;20.70;60.80;;;;;;5093493;28;20036;-81
2022/04/28 07:49:38;;;;;;;4.15;3.85;;;21.40;58.90;;;;;;5084711;28;20051;-81
2022/04/28 07:52:05;;;;;;;4.90;3.75;;;21.70;56.60;;;;;;5095857;28;20374;-80
2022/04/28 07:54:32;;;;;;;5.57;4.45;;;21.00;55.90;;;;;;5091049;28;20062;-80
2022/04/28 07:56:58;;;;;;;6.22;4.43;;;19.60;59.00;;;;;;5095372;28;20046;-81
2022/04/28 07:59:27;;;;;;;4.25;3.95;;;19.20;59.20;;;;;;5094120;28;20047;-81
2022/04/28 08:02:19;;;;;;;4.72;4.18;;;20.10;58.60;;;;;;5094773;28;20040;-79
2022/04/28 08:04:49;;;;;;;3.92;3.63;;;20.70;58.30;;;;;;5091708;28;21519;-79
2022/04/28 08:07:16;;;;;;;4.82;4.28;;;20.10;58.10;;;;;;5098580;28;20047;-80
2022/04/28 08:09:45;;;;;;;4.32;3.90;;;20.20;58.50;;;;;;5095264;28;20052;-79
2022/04/28 08:12:18;;;;;;;4.13;3.75;;;20.50;58.40;;;;;;5083973;28;20039;-79
2022/04/28 08:14:45;;;;;;;4.32;3.88;;;19.20;58.80;;;;;;5107693;28;20048;-78
2022/04/28 08:17:12;;;;;;;5.50;4.30;;;18.30;61.00;;;;;;5091911;28;20047;-80
2022/04/28 08:19:38;;;;;;;4.05;3.65;;;17.90;63.60;;;;;;5081527;28;20047;-79
2022/04/28 08:22:08;;;;;;;4.93;4.40;;;19.80;59.30;;;;;;5091417;28;20035;-79
2022/04/28 08:24:37;;;;;;;5.57;4.90;;;19.90;58.90;;;;;;5108792;28;20039;-79
2022/04/28 08:27:03;;;;;;;7.00;4.82;;;19.30;60.00;;;;;;5094319;28;20039;-82
2022/04/28 08:29:30;;;;;;;4.47;3.67;;;19.00;61.20;;;;;;5111397;28;20042;-80
2022/04/28 08:32:09;;;;;;;4.93;4.32;;;19.80;60.20;;;;;;5092155;28;20051;-79
2022/04/28 08:34:36;;;;;;;5.17;3.63;;;20.20;58.30;;;;;;5094126;28;20384;-79
2022/04/28 08:37:02;;;;;;;3.50;3.20;;;19.50;59.10;;;;;;5111153;28;20460;-79
2022/04/28 08:39:29;;;;;;;5.75;3.70;;;20.70;58.50;;;;;;5086754;28;20067;-79
2022/04/28 08:41:59;;;;;;;17.02;3.65;;;20.90;55.80;;;;;;5077710;28;20039;-79
2022/04/28 08:45:04;;;;;;;5.97;3.60;;;21.40;55.50;;;;;;5089569;28;20044;-80
2022/04/28 08:47:53;;;;;;;5.88;3.92;;;22.50;53.60;;;;;;5050036;28;20050;-80
2022/04/28 08:50:38;;;;;;;4.80;4.18;;;23.50;53.30;;;;;;5108337;28;20046;-80
2022/04/28 08:53:10;;;;;;;4.28;3.58;;;24.00;51.20;;;;;;5099896;28;20047;-80
2022/04/28 08:55:40;;;;;;;5.10;3.20;;;21.60;51.10;;;;;;5093099;28;20040;-79
2022/04/28 08:58:06;;;;;;;3.03;2.80;;;20.90;54.30;;;;;;5090784;28;20040;-79
2022/04/28 09:00:38;;;;;;;7.40;2.83;;;21.50;53.20;;;;;;5071317;28;20125;-80
2022/04/28 09:03:23;;;;;;;3.38;3.08;;;20.80;51.40;;;;;;5105591;28;20397;-80
2022/04/28 09:06:20;;;;;;;5.32;2.95;;;21.40;51.90;;;;;;5090097;28;20051;-79
2022/04/28 09:09:13;;;;;;;5.07;3.45;;;22.00;52.50;;;;;;5083387;28;20036;-79
2022/04/28 09:12:20;;;;;;;4.95;3.22;;;20.90;53.60;;;;;;4969865;28;20058;-80
2022/04/28 09:15:12;;;;;;;4.32;3.30;;;21.00;53.10;;;;;;5084308;28;20036;-79
2022/04/28 09:17:43;;;;;;;4.30;3.40;;;20.40;54.40;;;;;;5074509;28;20492;-79
2022/04/28 09:20:20;;;;;;;3.58;3.08;;;20.30;54.40;;;;;;5073628;28;20051;-79
2022/04/28 09:22:52;;;;;;;3.63;3.15;;;22.00;51.80;;;;;;5073519;28;20382;-78
2022/04/28 09:25:21;;;;;;;4.63;3.28;;;21.60;51.70;;;;;;5085285;28;20044;-80
2022/04/28 09:27:51;;;;;;;3.50;3.00;;;21.40;52.10;;;;;;5066766;28;20066;-78
2022/04/28 09:30:22;;;;;;;3.33;3.00;;;20.40;53.50;;;;;;5061763;28;20367;-80
2022/04/28 09:33:11;;;;;;;2.90;2.65;;;21.80;53.30;;;;;;5087338;28;20285;-80
2022/04/28 09:35:54;;;;;;;3.47;3.17;;;22.90;51.40;;;;;;5072931;28;20110;-80
2022/04/28 09:38:44;;;;;;;3.50;3.20;;;23.10;51.00;;;;;;5073618;28;20036;-79
2022/04/28 09:44:22;;;;;;;6.93;3.63;;;23.00;49.10;;;;;;5037800;28;20381;-81
2022/04/28 09:46:55;;;;;;;4.03;3.38;;;22.50;50.20;;;;;;5062104;28;20373;-80
2022/04/28 09:49:23;;;;;;;5.20;3.90;;;22.20;50.30;;;;;;5088835;28;20051;-80
2022/04/28 09:52:15;;;;;;;4.03;3.55;;;22.80;49.40;;;;;;5089123;28;20040;-80
2022/04/28 09:55:03;;;;;;;4.22;3.55;;;21.50;49.20;;;;;;5085707;28;20039;-79
2022/04/28 09:57:43;;;;;;;4.13;3.72;;;20.00;51.90;;;;;;5068076;28;20036;-79
2022/04/28 10:00:10;;;;;;;6.65;4.35;;;18.80;54.30;;;;;;5073287;28;20051;-80
2022/04/28 10:02:55;;;;;;;5.05;3.47;;;18.30;55.40;;;;;;5083488;28;20036;-80
2022/04/28 10:05:25;;;;;;;4.88;3.95;;;18.50;56.50;;;;;;5073761;28;20039;-80
2022/04/28 10:07:59;;;;;;;5.22;4.03;;;19.70;55.60;;;;;;5097769;28;20043;-80
2022/04/28 10:10:27;;;;;;;7.75;4.63;;;19.60;54.80;;;;;;5100404;28;20050;-79
2022/04/28 10:12:56;;;;;;;7.28;4.57;;;19.40;54.60;;;;;;5090672;28;20040;-80
2022/04/28 10:15:37;;;;;;;4.60;3.08;;;19.10;55.40;;;;;;5091967;28;20043;-79
2022/04/28 10:18:10;;;;;;;5.10;3.97;;;19.30;55.40;;;;;;5098016;28;20378;-80
2022/04/28 10:20:41;;;;;;;5.43;3.28;;;19.10;54.80;;;;;;5109321;28;20040;-80
2022/04/28 10:23:10;;;;;;;4.60;4.18;;;19.00;55.30;;;;;;5088705;28;20036;-81
2022/04/28 10:34:59;;;;;;;3.53;3.13;;;18.20;57.10;;;;;;5091423;28;20038;-80
2022/04/28 10:37:52;;;;;;;8.70;3.88;;;18.00;57.50;;;;;;5089483;28;20039;-79
2022/04/28 10:40:22;;;;;;;5.20;4.13;;;18.10;58.70;;;;;;5109648;28;20040;-78
2022/04/28 10:42:54;;;;;;;4.40;3.90;;;18.50;57.90;;;;;;5116366;28;20067;-80
2022/04/28 10:45:23;;;;;;;4.05;3.33;;;19.10;56.50;;;;;;5106336;28;20481;-78
2022/04/28 10:48:19;;;;;;;4.38;3.53;;;19.60;54.90;;;;;;5116242;28;20416;-80
2022/04/28 10:51:06;;;;;;;5.75;3.03;;;20.20;51.50;;;;;;5114586;28;20486;-79
2022/04/28 10:53:33;;;;;;;3.65;3.30;;;19.80;50.00;;;;;;5114320;28;20514;-79
2022/04/28 10:56:12;;;;;;;4.18;3.45;;;19.30;50.60;;;;;;5115909;28;20028;-80
2022/04/28 10:58:38;;;;;;;4.88;3.55;;;19.90;50.90;;;;;;5108100;28;20042;-80
2022/04/28 11:01:05;;;;;;;9.50;3.67;;;20.10;53.40;;;;;;5094420;28;20046;-79
2022/04/28 11:03:52;;;;;;;3.05;2.75;;;20.60;50.80;;;;;;5074010;28;1078723;-79
2022/04/28 11:06:33;;;;;;;2.92;2.60;;;20.10;50.70;;;;;;5113536;28;20036;-78
2022/04/28 11:09:02;;;;;;;4.20;2.92;;;19.30;50.10;;;;;;5113719;28;20042;-78
2022/04/28 11:11:45;;;;;;;5.00;2.80;;;19.40;51.10;;;;;;5093181;28;20218;-78
2022/04/28 11:14:13;;;;;;;2.45;2.20;;;19.70;50.40;;;;;;5094744;28;20031;-79
2022/04/28 11:16:40;;;;;;;3.15;2.83;;;19.50;50.50;;;;;;5114544;28;20473;-78
2022/04/28 11:19:08;;;;;;;4.13;3.40;;;19.20;50.80;;;;;;5109148;28;20040;-78
2022/04/28 11:21:38;;;;;;;3.72;3.22;;;18.90;51.80;;;;;;5105993;28;20032;-78
2022/04/28 11:24:06;;;;;;;2.97;2.67;;;19.10;52.20;;;;;;5112603;28;20023;-80
2022/04/28 11:26:37;;;;;;;4.85;3.15;;;19.30;50.80;;;;;;5084008;28;20036;-80
2022/04/28 11:29:23;;;;;;;5.43;3.03;;;19.40;50.80;;;;;;5087863;28;20043;-81
2022/04/28 11:31:53;;;;;;;3.10;2.80;;;19.40;51.70;;;;;;5116359;28;20138;-78
2022/04/28 11:34:21;;;;;;;5.85;3.53;;;19.50;50.30;;;;;;5113271;28;20392;-79
2022/04/28 11:36:47;;;;;;;3.28;2.58;;;19.50;48.70;;;;;;5093896;28;20477;-80
2022/04/28 11:39:13;;;;;;;3.50;3.17;;;19.90;50.20;;;;;;5116056;28;20059;-81
2022/04/28 11:41:43;;;;;;;3.95;3.08;;;20.20;49.20;;;;;;5114400;28;20373;-81
2022/04/28 11:44:11;;;;;;;3.15;2.85;;;20.50;48.90;;;;;;5110691;28;20040;-79
2022/04/28 11:46:48;;;;;;;6.82;2.25;;;20.60;48.10;;;;;;5104924;28;20032;-79
2022/04/28 11:49:15;;;;;;;2.65;1.58;;;20.80;43.80;;;;;;5114752;28;20038;-80
2022/04/28 11:51:41;;;;;;;2.10;1.65;;;20.40;43.40;;;;;;5114536;28;20042;-80
2022/04/28 11:54:25;;;;;;;1.73;1.60;;;20.50;45.00;;;;;;5113682;28;20031;-79
2022/04/28 11:57:09;;;;;;;3.92;2.20;;;20.90;43.40;;;;;;5110030;28;20028;-80
2022/04/28 11:59:39;;;;;;;2.33;1.90;;;21.00;44.00;;;;;;5091150;28;20055;-80
2022/04/28 12:02:28;;;;;;;3.33;2.15;;;21.20;42.80;;;;;;5109694;28;20027;-80
2022/04/28 12:05:00;;;;;;;4.93;2.80;;;21.30;45.80;;;;;;5104965;28;20044;-79
2022/04/28 12:07:28;;;;;;;4.63;2.65;;;21.10;46.70;;;;;;5110237;28;20054;-79
2022/04/28 12:15:25;;;;;;;3.72;2.72;;;20.40;47.30;;;;;;5105727;28;20035;-79
2022/04/28 12:20:56;;;;;;;3.47;2.30;;;20.10;47.70;;;;;;5111906;28;20033;-74
2022/04/28 12:23:44;;;;;;;2.40;1.70;;;20.20;44.50;;;;;;5110723;28;20044;-76
2022/04/28 12:26:12;;;;;;;6.97;2.50;;;20.10;46.40;;;;;;5113228;28;20372;-77
2022/04/28 12:28:43;;;;;;;4.97;2.03;;;20.20;46.30;;;;;;5111011;28;20036;-76
2022/04/28 12:31:13;;;;;;;3.42;2.30;;;20.80;46.00;;;;;;5111441;28;20035;-77
2022/04/28 12:33:41;;;;;;;3.15;2.70;;;21.30;45.30;;;;;;5110626;28;20038;-77
2022/04/28 12:36:13;;;;;;;2.95;2.15;;;21.30;44.40;;;;;;5094138;28;20035;-75
2022/04/28 12:38:44;;;;;;;4.57;1.98;;;20.90;44.50;;;;;;5091231;28;20047;-76
2022/04/28 12:41:27;;;;;;;5.07;2.42;;;21.10;44.60;;;;;;5110001;28;20031;-76
2022/04/28 12:43:57;;;;;;;3.10;2.78;;;21.50;44.60;;;;;;5112018;28;20031;-76
2022/04/28 12:46:34;;;;;;;3.58;3.28;;;21.50;45.70;;;;;;5111880;28;20035;-77
2022/04/28 12:49:03;;;;;;;2.65;2.30;;;21.40;45.40;;;;;;5106730;28;20476;-77
2022/04/28 12:51:39;;;;;;;2.65;2.17;;;21.40;45.10;;;;;;5094260;28;20043;-78
2022/04/28 12:54:17;;;;;;;4.22;3.15;;;21.30;45.70;;;;;;5092952;28;20042;-78
2022/04/28 12:56:45;;;;;;;6.80;2.65;;;21.70;45.40;;;;;;5116506;28;20505;-76
2022/04/28 12:59:17;;;;;;;4.13;3.47;;;21.80;46.40;;;;;;5090612;28;20043;-81
2022/04/28 13:01:46;;;;;;;2.80;2.25;;;21.40;45.20;;;;;;5112774;28;20028;-80
2022/04/28 13:04:17;;;;;;;2.13;1.92;;;21.20;45.80;;;;;;5111065;28;20047;-80
2022/04/28 13:06:44;;;;;;;5.38;3.42;;;21.20;45.00;;;;;;5094652;28;20043;-80
2022/04/28 13:09:11;;;;;;;5.78;2.83;;;21.50;44.50;;;;;;5106678;28;20036;-80
2022/04/28 13:11:39;;;;;;;2.65;2.38;;;21.90;44.00;;;;;;5111964;28;20032;-80
2022/04/28 13:14:10;;;;;;;4.93;2.83;;;22.20;43.40;;;;;;5091949;28;20039;-80
2022/04/28 13:16:38;;;;;;;2.92;1.85;;;21.90;42.80;;;;;;5111609;28;20046;-80
2022/04/28 13:19:05;;;;;;;3.72;1.95;;;21.20;42.30;;;;;;5112248;28;20459;-79
2022/04/28 13:21:32;;;;;;;3.88;2.70;;;21.00;43.30;;;;;;5111991;28;20027;-79
2022/04/28 13:23:58;;;;;;;2.38;1.50;;;20.60;44.10;;;;;;5109455;28;20349;-80
2022/04/28 13:26:27;;;;;;;2.05;1.30;;;20.50;42.30;;;;;;5109723;28;20035;-81
2022/04/28 13:28:54;;;;;;;1.63;1.45;;;20.70;41.00;;;;;;5105061;28;20042;-81
2022/04/28 13:31:21;;;;;;;2.47;1.63;;;20.80;40.90;;;;;;5095594;28;20043;-81
2022/04/28 13:33:49;;;;;;;2.13;1.52;;;20.40;40.40;;;;;;5110362;28;20024;-79
2022/04/28 13:36:15;;;;;;;2.95;1.95;;;20.60;40.20;;;;;;5093807;28;20125;-81
2022/04/28 13:38:42;;;;;;;2.67;1.48;;;20.60;41.10;;;;;;5109196;28;20042;-82
2022/04/28 13:41:10;;;;;;;2.33;1.67;;;20.70;40.20;;;;;;5108124;28;20031;-80
2022/04/28 13:43:37;;;;;;;2.60;2.03;;;20.80;40.90;;;;;;5106322;28;20043;-80
2022/04/28 13:46:04;;;;;;;1.95;1.55;;;21.30;41.10;;;;;;5111878;28;20058;-79
2022/04/28 13:48:31;;;;;;;1.92;1.42;;;21.50;41.20;;;;;;5110125;28;20487;-80
2022/04/28 13:50:59;;;;;;;2.03;1.60;;;21.90;41.10;;;;;;5111006;28;20464;-78